createdAt,value
2019-04-22T00:01:19.484Z,97477.81
2019-04-22T00:03:50.650Z,97478.02
2019-04-22T00:06:30.910Z,97475.39
2019-04-22T00:09:07.056Z,97469.91
2019-04-22T00:14:00.769Z,97464.73
2019-04-22T00:16:43.240Z,97462.70
2019-04-22T00:21:35.219Z,97456.61
2019-04-22T00:23:59.746Z,97455.89
2019-04-22T00:26:29.092Z,97455.28
2019-04-22T00:29:08.106Z,97456.01
2019-04-22T00:31:21.289Z,97445.03
2019-04-22T00:33:48.105Z,97446.56
2019-04-22T00:36:16.719Z,97441.80
2019-04-22T00:38:51.670Z,97442.80
2019-04-22T00:41:21.031Z,97435.27
2019-04-22T00:43:48.082Z,97436.61
2019-04-22T00:46:19.640Z,97434.58
2019-04-22T00:49:07.076Z,97428.57
2019-04-22T00:51:22.577Z,97431.94
2019-04-22T00:53:49.450Z,97425.93
2019-04-22T00:56:24.326Z,97426.53
2019-04-22T00:59:06.943Z,97425.33
2019-04-22T01:04:05.611Z,97417.59
2019-04-22T01:06:29.096Z,97419.83
2019-04-22T01:08:57.912Z,97411.56
2019-04-22T01:13:52.125Z,97412.14
2019-04-22T01:16:22.693Z,97406.39
2019-04-22T01:18:49.048Z,97400.49
2019-04-22T01:23:53.248Z,97397.08
2019-04-22T01:26:15.884Z,97397.08
2019-04-22T01:28:39.887Z,97390.74
2019-04-22T01:31:03.820Z,97393.09
2019-04-22T01:33:33.378Z,97388.29
2019-04-22T01:36:15.560Z,97383.23
2019-04-22T01:38:45.361Z,97384.73
2019-04-22T01:41:26.638Z,97381.87
2019-04-22T01:44:04.226Z,97382.27
2019-04-22T01:46:29.943Z,97374.88
2019-04-22T01:48:52.497Z,97381.66
2019-04-22T01:51:12.255Z,97376.88
2019-04-22T01:53:54.210Z,97371.48
2019-04-22T01:56:20.479Z,97366.50
2019-04-22T01:58:38.240Z,97362.25
2019-04-22T02:01:30.666Z,97361.23
2019-04-22T02:04:01.326Z,97354.58
2019-04-22T02:06:35.099Z,97356.17
2019-04-22T02:09:09.472Z,97350.86
2019-04-22T02:11:41.756Z,97347.23
2019-04-22T02:14:04.873Z,97344.65
2019-04-22T02:19:20.709Z,97334.45
2019-04-22T02:21:38.208Z,97329.50
2019-04-22T02:24:09.723Z,97328.78
2019-04-22T02:26:47.812Z,97326.75
2019-04-22T02:29:06.633Z,97319.78
2019-04-22T02:31:44.898Z,97325.79
2019-04-22T02:34:35.106Z,97319.88
2019-04-22T02:42:03.195Z,97304.80
2019-04-22T02:44:30.757Z,97301.38
2019-04-22T02:47:15.758Z,97297.13
2019-04-22T02:51:52.225Z,97293.73
2019-04-22T02:57:10.172Z,97281.11
2019-04-22T02:59:52.581Z,97286.31
2019-04-22T03:02:07.227Z,97279.17
2019-04-22T03:04:28.371Z,97280.80
2019-04-22T03:06:51.219Z,97282.11
2019-04-22T03:09:30.980Z,97274.91
2019-04-22T03:12:14.263Z,97264.62
2019-04-22T03:14:22.862Z,97262.13
2019-04-22T03:16:57.449Z,97263.22
2019-04-22T03:19:34.321Z,97260.17
2019-04-22T03:22:05.800Z,97257.85
2019-04-22T03:26:59.038Z,97255.19
2019-04-22T03:29:28.729Z,97247.64
2019-04-22T03:32:59.378Z,97245.35
2019-04-22T03:37:23.119Z,97237.28
2019-04-22T03:39:46.263Z,97234.67
2019-04-22T04:02:04.114Z,97213.94
2019-04-22T04:07:14.980Z,97213.05
2019-04-22T04:09:32.943Z,97212.02
2019-04-22T04:12:04.111Z,97213.61
2019-04-22T04:19:35.067Z,97212.73
2019-04-22T04:32:11.805Z,97212.18
2019-04-22T04:34:43.306Z,97210.48
2019-04-22T04:40:20.914Z,97211.13
2019-04-22T04:44:59.266Z,97214.46
2019-04-22T04:50:05.882Z,97209.86
2019-04-22T04:52:27.635Z,97214.59
2019-04-22T04:57:05.042Z,97205.77
2019-04-22T05:00:25.458Z,97209.91
2019-04-22T05:04:56.207Z,97200.12
2019-04-22T05:09:47.925Z,97203.86
2019-04-22T05:14:41.519Z,97192.81
2019-04-22T05:19:33.328Z,97181.52
2019-04-22T05:27:10.861Z,97182.08
2019-04-22T05:29:36.130Z,97168.63
2019-04-22T05:32:01.481Z,97174.48
2019-04-22T05:34:29.489Z,97162.51
2019-04-22T05:37:01.188Z,97170.03
2019-04-22T05:39:29.770Z,97161.14
2019-04-22T05:42:03.667Z,97163.63
2019-04-22T05:44:29.569Z,97160.33
2019-04-22T05:47:01.378Z,97161.28
2019-04-22T05:49:32.277Z,97164.97
2019-04-22T05:51:54.912Z,97161.13
2019-04-22T05:54:35.223Z,97153.31
2019-04-22T05:57:08.310Z,97151.91
2019-04-22T05:59:50.253Z,97146.41
2019-04-22T06:02:33.869Z,97141.21
2019-04-22T06:04:54.523Z,97137.12
2019-04-22T06:10:24.426Z,97132.50
2019-04-22T06:12:46.170Z,97137.30
2019-04-22T06:15:19.443Z,97128.56
2019-04-22T06:17:57.585Z,97132.95
2019-04-22T06:20:15.522Z,97129.61
2019-04-22T06:22:54.242Z,97131.11
2019-04-22T06:25:34.791Z,97125.56
2019-04-22T06:28:04.911Z,97122.67
2019-04-22T06:30:23.340Z,97128.12
2019-04-22T06:32:53.400Z,97121.33
2019-04-22T06:35:34.566Z,97118.75
2019-04-22T06:40:26.088Z,97115.02
2019-04-22T06:43:03.197Z,97122.95
2019-04-22T06:45:29.222Z,97114.66
2019-04-22T06:48:19.140Z,97117.98
2019-04-22T06:50:40.507Z,97115.11
2019-04-22T06:53:16.945Z,97110.72
2019-04-22T06:55:51.680Z,97111.40
2019-04-22T06:58:21.550Z,97110.27
2019-04-22T07:00:55.774Z,97104.81
2019-04-22T07:05:52.277Z,97102.09
2019-04-22T07:10:50.362Z,97089.19
2019-04-22T07:13:23.395Z,97093.09
2019-04-22T07:15:50.330Z,97082.76
2019-04-22T07:18:26.143Z,97085.43
2019-04-22T07:23:24.775Z,97077.67
2019-04-22T07:25:41.215Z,97075.98
2019-04-22T07:28:14.518Z,97075.98
2019-04-22T07:30:40.756Z,97067.76
2019-04-22T07:36:03.122Z,97065.91
2019-04-22T07:38:14.322Z,97059.93
2019-04-22T07:40:43.879Z,97063.12
2019-04-22T07:43:14.918Z,97060.53
2019-04-22T07:45:44.277Z,97059.75
2019-04-22T07:48:20.787Z,97063.77
2019-04-22T07:50:49.338Z,97056.27
2019-04-22T07:53:04.827Z,97058.14
2019-04-22T07:55:38.152Z,97053.03
2019-04-22T07:58:18.597Z,97047.17
2019-04-22T08:00:39.133Z,97049.52
2019-04-22T08:03:23.885Z,97040.19
2019-04-22T08:05:52.197Z,97040.19
2019-04-22T08:08:20.080Z,97042.61
2019-04-22T08:13:11.860Z,97038.05
2019-04-22T08:15:52.031Z,97033.20
2019-04-22T08:18:22.187Z,97034.52
2019-04-22T08:20:58.486Z,97035.00
2019-04-22T08:25:43.168Z,97029.48
2019-04-22T08:28:25.613Z,97031.02
2019-04-22T08:30:41.407Z,97028.63
2019-04-22T08:33:18.651Z,97027.35
2019-04-22T08:36:00.077Z,97026.77
2019-04-22T08:38:11.591Z,97026.03
2019-04-22T08:40:49.494Z,97024.53
2019-04-22T08:45:44.339Z,97020.25
2019-04-22T08:48:09.530Z,97022.53
2019-04-22T08:50:38.906Z,97017.56
2019-04-22T08:53:09.536Z,97011.97
2019-04-22T08:55:43.171Z,97014.64
2019-04-22T09:00:37.522Z,97008.39
2019-04-22T09:03:04.801Z,97005.41
2019-04-22T09:05:52.140Z,97001.67
2019-04-22T09:08:05.885Z,97006.30
2019-04-22T09:10:32.882Z,97002.39
2019-04-22T09:15:26.365Z,96998.69
2019-04-22T09:17:57.139Z,96988.82
2019-04-22T09:20:20.471Z,96985.36
2019-04-22T09:22:56.471Z,96983.36
2019-04-22T09:25:17.054Z,96974.52
2019-04-22T09:27:51.155Z,96973.38
2019-04-22T09:30:20.468Z,96978.62
2019-04-22T09:32:45.243Z,96970.92
2019-04-22T09:35:12.356Z,96965.92
2019-04-22T09:37:50.020Z,96963.55
2019-04-22T09:40:15.283Z,96958.76
2019-04-22T09:42:44.026Z,96961.85
2019-04-22T09:45:11.649Z,96958.09
2019-04-22T09:50:09.894Z,96942.80
2019-04-22T09:52:43.567Z,96945.53
2019-04-22T09:55:12.486Z,96940.84
2019-04-22T09:57:43.186Z,96935.42
2019-04-22T10:02:41.256Z,96927.16
2019-04-22T10:05:07.544Z,96919.62
2019-04-22T10:07:31.905Z,96921.41
2019-04-22T10:12:32.146Z,96914.19
2019-04-22T10:14:53.963Z,96908.97
2019-04-22T10:17:25.873Z,96907.34
2019-04-22T10:19:55.710Z,96898.52
2019-04-22T10:22:32.480Z,96902.83
2019-04-22T10:24:53.223Z,96899.02
2019-04-22T10:27:24.311Z,96889.33
2019-04-22T10:29:54.140Z,96888.79
2019-04-22T10:32:17.576Z,96884.78
2019-04-22T10:34:33.939Z,96880.12
2019-04-22T10:36:58.741Z,96880.22
2019-04-22T10:39:35.273Z,96877.81
2019-04-22T10:41:59.751Z,96870.09
2019-04-22T10:44:23.764Z,96864.64
2019-04-22T10:46:53.938Z,96865.33
2019-04-22T10:49:22.393Z,96858.41
2019-04-22T10:51:51.107Z,96855.18
2019-04-22T10:54:23.251Z,96852.02
2019-04-22T10:56:49.027Z,96852.55
2019-04-22T10:59:18.589Z,96847.51
2019-04-22T11:01:46.567Z,96845.25
2019-04-22T11:04:15.783Z,96841.20
2019-04-22T11:06:50.703Z,96832.72
2019-04-22T11:09:12.466Z,96833.14
2019-04-22T11:11:48.932Z,96838.19
2019-04-22T11:14:10.603Z,96829.69
2019-04-22T11:16:39.425Z,96844.63
2019-04-22T11:19:09.786Z,96838.61
2019-04-22T11:21:39.097Z,96834.23
2019-04-22T11:24:08.523Z,96830.72
2019-04-22T11:26:38.745Z,96820.32
2019-04-22T11:29:09.940Z,96818.51
2019-04-22T11:31:38.817Z,96817.86
2019-04-22T11:35:45.858Z,96826.46
2019-04-22T11:36:40.831Z,96816.59
2019-04-22T11:39:12.915Z,96812.19
2019-04-22T11:41:42.130Z,96820.00
2019-04-22T11:44:11.488Z,96817.88
2019-04-22T11:46:43.140Z,96816.97
2019-04-22T11:49:10.129Z,96817.55
2019-04-22T11:51:40.211Z,96811.66
2019-04-22T11:54:08.284Z,96818.73
2019-04-22T11:56:35.154Z,96812.73
2019-04-22T11:59:02.707Z,96810.38
2019-04-22T12:01:42.673Z,96800.41
2019-04-22T12:04:41.231Z,96801.20
2019-04-22T12:07:09.031Z,96805.98
2019-04-22T12:09:37.458Z,96793.36
2019-04-22T12:12:07.687Z,96799.61
2019-04-22T12:14:36.210Z,96800.02
2019-04-22T12:17:03.608Z,96802.23
2019-04-22T12:19:31.312Z,96797.41
2019-04-22T12:22:02.888Z,96802.47
2019-04-22T12:24:30.310Z,96799.28
2019-04-22T12:27:00.225Z,96798.34
2019-04-22T12:29:31.023Z,96791.53
2019-04-22T12:32:00.257Z,96787.52
2019-04-22T12:34:29.205Z,96779.19
2019-04-22T12:37:00.382Z,96782.69
2019-04-22T12:39:31.739Z,96782.05
2019-04-22T12:42:02.775Z,96779.20
2019-04-22T12:44:32.700Z,96774.17
2019-04-22T12:47:03.635Z,96770.78
2019-04-22T12:49:32.256Z,96772.38
2019-04-22T12:52:01.065Z,96771.58
2019-04-22T12:54:31.143Z,96772.44
2019-04-22T12:57:03.964Z,96769.77
2019-04-22T12:59:31.903Z,96758.25
2019-04-22T13:02:00.677Z,96755.47
2019-04-22T13:04:27.932Z,96750.19
2019-04-22T13:06:55.528Z,96749.98
2019-04-22T13:09:23.105Z,96744.41
2019-04-22T13:11:51.029Z,96736.94
2019-04-22T13:14:21.108Z,96736.70
2019-04-22T13:16:49.300Z,96737.88
2019-04-22T13:19:18.888Z,96735.13
2019-04-22T13:21:47.187Z,96731.66
2019-04-22T13:24:19.532Z,96738.84
2019-04-22T13:26:50.943Z,96730.20
2019-04-22T13:29:19.240Z,96736.19
2019-04-22T13:31:48.771Z,96730.25
2019-04-22T13:34:26.126Z,96721.19
2019-04-22T13:36:51.337Z,96710.19
2019-04-22T13:39:21.298Z,96720.17
2019-04-22T13:41:53.895Z,96715.17
2019-04-22T13:44:19.301Z,96720.84
2019-04-22T13:47:08.170Z,96724.50
2019-04-22T13:49:54.049Z,96715.52
2019-04-22T13:52:21.043Z,96715.85
2019-04-22T13:57:10.563Z,96712.45
2019-04-22T13:59:26.687Z,96718.35
2019-04-22T14:01:50.670Z,96709.73
2019-04-22T14:04:18.565Z,96705.83
2019-04-22T14:06:46.903Z,96705.75
2019-04-22T14:09:16.653Z,96703.56
2019-04-22T14:11:49.719Z,96706.72
2019-04-22T14:14:12.627Z,96705.96
2019-04-22T14:16:42.768Z,96705.78
2019-04-22T14:19:11.926Z,96705.48
2019-04-22T14:21:44.274Z,96701.27
2019-04-22T14:24:14.004Z,96698.67
2019-04-22T14:26:52.358Z,96696.54
2019-04-22T14:29:09.665Z,96689.50
2019-04-22T14:31:36.335Z,96698.41
2019-04-22T14:34:05.395Z,96698.69
2019-04-22T14:36:37.128Z,96695.23
2019-04-22T14:39:05.966Z,96691.70
2019-04-22T14:44:23.218Z,96699.38
2019-04-22T14:45:04.929Z,96690.86
2019-04-22T14:47:03.498Z,96693.06
2019-04-22T14:49:28.842Z,96682.52
2019-04-22T14:52:05.276Z,96690.58
2019-04-22T14:54:28.438Z,96679.09
2019-04-22T14:56:40.452Z,96671.58
2019-04-22T14:59:09.292Z,96670.30
2019-04-22T15:01:39.685Z,96671.06
2019-04-22T15:04:05.468Z,96682.06
2019-04-22T15:06:37.949Z,96670.64
2019-04-22T15:09:07.993Z,96666.58
2019-04-22T15:11:50.975Z,96662.16
2019-04-22T15:14:05.512Z,96656.72
2019-04-22T15:16:36.347Z,96653.52
2019-04-22T15:19:07.694Z,96650.55
2019-04-22T15:21:34.701Z,96651.98
2019-04-22T15:24:04.726Z,96652.29
2019-04-22T15:26:35.306Z,96653.31
2019-04-22T15:29:07.185Z,96651.81
2019-04-22T15:31:35.462Z,96657.69
2019-04-22T15:34:04.612Z,96648.23
2019-04-22T15:36:32.392Z,96651.58
2019-04-22T15:38:59.670Z,96651.42
2019-04-22T15:41:28.548Z,96654.99
2019-04-22T15:43:55.660Z,96652.22
2019-04-22T15:46:23.525Z,96650.72
2019-04-22T15:48:53.733Z,96642.91
2019-04-22T15:54:09.887Z,96655.72
2019-04-22T15:56:39.033Z,96645.09
2019-04-22T15:59:17.279Z,96645.16
2019-04-22T16:01:40.970Z,96635.06
2019-04-22T16:04:05.855Z,96639.81
2019-04-22T16:06:32.953Z,96640.17
2019-04-22T16:09:04.656Z,96647.35
2019-04-22T16:11:35.967Z,96641.86
2019-04-22T16:14:06.452Z,96645.17
2019-04-22T16:16:34.740Z,96641.61
2019-04-22T16:19:04.431Z,96642.80
2019-04-22T16:21:40.481Z,96645.23
2019-04-22T16:24:02.566Z,96641.30
2019-04-22T16:26:32.594Z,96644.72
2019-04-22T17:00:18.779Z,96671.98
2019-04-22T17:02:48.437Z,96669.88
2019-04-22T17:05:19.807Z,96669.41
2019-04-22T17:07:47.815Z,96671.14
2019-04-22T17:10:15.542Z,96672.52
2019-04-22T17:12:50.713Z,96672.66
2019-04-22T17:15:24.244Z,96670.63
2019-04-22T17:18:27.481Z,96668.25
2019-04-22T17:23:27.641Z,96673.28
2019-04-22T17:26:14.580Z,96681.16
2019-04-22T18:00:28.185Z,96686.92
2019-04-22T18:02:48.674Z,96688.95
2019-04-22T18:05:32.182Z,96691.23
2019-04-22T18:08:13.941Z,96690.83
2019-04-22T18:10:40.733Z,96709.37
2019-04-22T18:13:33.416Z,96708.28
2019-04-22T18:16:02.541Z,96710.32
2019-04-22T18:18:35.552Z,96715.70
2019-04-22T18:20:56.381Z,96714.13
2019-04-22T18:23:14.584Z,96713.52
2019-04-22T18:26:00.332Z,96717.33
2019-04-22T18:28:30.098Z,96722.19
2019-04-22T18:30:52.948Z,96726.88
2019-04-22T18:33:24.210Z,96733.45
2019-04-22T18:35:51.549Z,96730.91
2019-04-22T18:41:02.191Z,96737.66
2019-04-22T18:43:39.442Z,96741.17
2019-04-22T18:46:06.550Z,96747.03
2019-04-22T18:48:27.562Z,96756.67
2019-04-22T18:50:59.291Z,96760.18
2019-04-22T18:53:29.932Z,96763.88
2019-04-22T18:55:56.902Z,96766.02
2019-04-22T18:58:24.628Z,96764.99
2019-04-22T19:00:37.306Z,96770.34
2019-04-22T19:03:13.566Z,96774.83
2019-04-22T19:05:51.712Z,96777.78
2019-04-22T19:10:57.694Z,96784.19
2019-04-22T19:16:19.697Z,96783.95
2019-04-22T19:18:23.997Z,96777.74
2019-04-22T19:20:53.772Z,96784.95
2019-04-22T19:23:17.453Z,96784.69
2019-04-22T19:25:42.327Z,96788.70
2019-04-22T19:28:27.176Z,96789.23
2019-04-22T19:30:50.880Z,96792.99
2019-04-22T19:33:18.950Z,96798.03
2019-04-22T19:35:40.073Z,96799.57
2019-04-22T19:38:09.313Z,96805.70
2019-04-22T19:40:56.264Z,96804.39
2019-04-22T19:43:18.196Z,96815.59
2019-04-22T19:45:43.044Z,96811.75
2019-04-22T19:48:28.288Z,96815.44
2019-04-22T19:50:54.437Z,96819.19
2019-04-22T19:53:18.922Z,96817.94
2019-04-22T19:55:45.138Z,96813.20
2019-04-22T19:58:10.803Z,96814.84
2019-04-22T20:00:36.148Z,96825.48
2019-04-22T20:03:18.560Z,96823.81
2019-04-22T20:05:43.737Z,96817.14
2019-04-22T20:08:17.825Z,96823.56
2019-04-22T20:10:44.409Z,96823.05
2019-04-22T20:13:15.081Z,96815.28
2019-04-22T20:15:38.223Z,96816.36
2019-04-22T20:20:58.366Z,96805.09
2019-04-22T20:23:11.553Z,96811.14
2019-04-22T20:25:40.831Z,96812.16
2019-04-22T20:28:17.823Z,96810.83
2019-04-22T20:30:48.733Z,96815.26
2019-04-22T20:33:08.696Z,96816.89
2019-04-22T20:38:29.689Z,96832.10
2019-04-22T20:41:08.864Z,96830.02
2019-04-22T20:43:50.221Z,96845.32
2019-04-22T20:46:19.109Z,96843.25
2019-04-22T20:48:50.277Z,96842.52
2019-04-22T20:51:17.133Z,96847.98
2019-04-22T20:53:48.021Z,96846.95
2019-04-22T20:56:14.671Z,96845.34
2019-04-22T20:58:46.688Z,96851.67
2019-04-22T21:01:11.690Z,96861.73
2019-04-22T21:03:37.344Z,96882.70
2019-04-22T21:06:14.878Z,96872.63
2019-04-22T21:08:47.518Z,96879.58
2019-04-22T21:11:19.422Z,96883.87
2019-04-22T21:13:50.443Z,96884.69
2019-04-22T21:16:21.994Z,96881.28
2019-04-22T21:18:44.616Z,96882.08
2019-04-22T21:21:20.416Z,96889.13
2019-04-22T21:23:38.978Z,96890.50
2019-04-22T21:26:13.009Z,96890.03
2019-04-22T21:28:44.586Z,96892.91
2019-04-22T21:31:10.237Z,96888.28
2019-04-22T21:33:42.896Z,96892.92
2019-04-22T21:36:30.052Z,96896.33
2019-04-22T21:38:39.325Z,96894.66
2019-04-22T21:41:09.991Z,96898.49
2019-04-22T21:43:39.720Z,96897.02
2019-04-22T21:46:10.479Z,96905.14
2019-04-22T21:48:42.158Z,96898.23
2019-04-22T21:51:04.512Z,96890.84
2019-04-22T21:53:37.943Z,96893.23
2019-04-22T21:56:11.609Z,96896.45
2019-04-22T21:58:33.206Z,96891.44
2019-04-22T22:01:12.998Z,96891.25
2019-04-22T22:03:35.392Z,96891.12
2019-04-22T22:05:48.077Z,96890.72
2019-04-22T22:08:30.165Z,96894.63
2019-04-22T22:10:52.281Z,96879.59
2019-04-22T22:13:27.059Z,96878.77
2019-04-22T22:15:51.103Z,96875.98
2019-04-22T22:18:16.521Z,96879.70
2019-04-22T22:21:01.004Z,96878.11
2019-04-22T22:25:43.710Z,96879.12
2019-04-22T22:28:29.430Z,96873.67
2019-04-22T22:33:10.452Z,96879.66
2019-04-22T22:35:35.987Z,96873.85
2019-04-22T22:38:05.476Z,96876.92
2019-04-22T22:40:23.209Z,96875.00
2019-04-22T22:42:55.881Z,96876.86
2019-04-22T22:45:33.729Z,96879.31
2019-04-22T22:48:14.928Z,96878.41
2019-04-22T22:50:40.298Z,96877.66
2019-04-22T22:55:41.000Z,96876.92
2019-04-22T22:58:11.474Z,96878.25
2019-04-22T23:00:33.926Z,96869.37
2019-04-22T23:05:37.615Z,96868.80
2019-04-22T23:08:07.784Z,96873.91
2019-04-22T23:10:34.120Z,96871.52
2019-04-22T23:15:25.331Z,96873.61
2019-04-22T23:17:38.964Z,96873.19
2019-04-22T23:20:05.369Z,96877.75
2019-04-22T23:22:58.739Z,96883.02
2019-04-22T23:25:22.323Z,96878.38
2019-04-22T23:27:42.144Z,96883.00
2019-04-22T23:30:06.484Z,96873.29
2019-04-22T23:32:35.770Z,96872.48
2019-04-22T23:35:14.703Z,96879.78
2019-04-22T23:37:35.273Z,96877.85
2019-04-22T23:40:17.283Z,96879.75
2019-04-22T23:42:33.397Z,96884.00
2019-04-22T23:45:12.288Z,96885.14
2019-04-22T23:47:26.082Z,96885.23
2019-04-22T23:50:01.396Z,96880.52
2019-04-22T23:52:32.024Z,96884.05
2019-04-22T23:55:02.148Z,96877.12
2019-04-22T23:57:33.208Z,96878.65
